< < Back
Terminal Aerodrome Forecast


Current Version              Previous Versions:   1  2  3  4  5  6  7  8  9  

Terminal Aerodrome Forecast

538
FTUS42 KJAX 241120
TAFJAX
TAF
KJAX 241120Z 2412/2512 00000KT P6SM SCT030 SCT250
     FM241300 34005KT P6SM SCT035
     FM242000 06007KT P6SM VCSH BKN050
     FM242300 VRB03KT P6SM SCT050=

Latest METAR

674
SAUS80 KWBC 250900 RRA
MTRJAX
METAR KJAX 250856Z 00000KT 4SM BR FEW030 FEW250 21/21 A3001 RMK AO2
SLP164 OCNL LTGICCC DSNT E CB DSNT E T02110211 55002


USA.gov is the U.S. government's official web portal to all federal, state and local government web resources and services.